Time;durP1;ratioP1;P1;durP2;ratioP2;P2;SDS_P1;SDS_P2;PMS_P1;PMS_P2;Temp;Humidity;BMP_temperature;BMP_pressure;BME280_temperature;BME280_humidity;BME280_pressure;Samples;Min_cycle;Max_cycle;Signal;HPM_P1;HPM_P2
2023/08/20 00:01:29;;;;;;;0.00;0.00;;;;;;;18.64;100.00;101988.63;5072885;28;20487;-45
2023/08/20 00:03:55;;;;;;;0.00;0.00;;;;;;;18.63;100.00;101995.97;5073442;28;20157;-46
2023/08/20 00:06:21;;;;;;;0.00;0.00;;;;;;;18.59;100.00;101986.56;5073010;28;20497;-46
2023/08/20 00:08:47;;;;;;;0.00;0.00;;;;;;;18.58;100.00;101987.59;5073119;28;20035;-44
2023/08/20 00:11:13;;;;;;;0.00;0.00;;;;;;;18.56;100.00;101992.44;5072931;28;20062;-44
2023/08/20 00:13:39;;;;;;;0.00;0.00;;;;;;;18.57;100.00;102002.28;5072865;28;20285;-44
2023/08/20 00:16:05;;;;;;;0.00;0.00;;;;;;;18.55;100.00;102011.69;5072688;28;20043;-47
2023/08/20 00:18:31;;;;;;;0.00;0.00;;;;;;;18.55;100.00;102008.97;5074298;28;20028;-46
2023/08/20 00:20:56;;;;;;;0.00;0.00;;;;;;;18.54;100.00;102005.41;5073878;28;20040;-44
2023/08/20 00:23:22;;;;;;;0.00;0.00;;;;;;;18.54;100.00;102016.31;5054735;28;20086;-47
2023/08/20 00:25:47;;;;;;;0.00;0.00;;;;;;;18.55;100.00;102028.06;5053005;28;20032;-46
2023/08/20 00:28:13;;;;;;;0.00;0.00;;;;;;;18.57;100.00;102018.63;5072618;28;20035;-46
2023/08/20 00:30:39;;;;;;;0.00;0.00;;;;;;;18.59;100.00;102027.44;5072845;28;20020;-44
2023/08/20 00:33:04;;;;;;;0.00;0.00;;;;;;;18.60;100.00;102031.00;5072692;28;20029;-49
2023/08/20 00:35:30;;;;;;;0.00;0.00;;;;;;;18.58;100.00;102039.38;5072256;28;20179;-46
2023/08/20 00:37:55;;;;;;;0.00;0.00;;;;;;;18.56;100.00;102035.19;5072387;28;20032;-46
2023/08/20 00:40:20;;;;;;;0.00;0.00;;;;;;;18.55;100.00;102039.81;5089302;28;20514;-48
2023/08/20 00:42:46;;;;;;;0.00;0.00;;;;;;;18.52;100.00;102048.41;5092293;28;20084;-45
2023/08/20 00:45:12;;;;;;;0.00;0.00;;;;;;;18.48;100.00;102046.28;5078092;28;20111;-45
2023/08/20 00:47:37;;;;;;;0.00;0.00;;;;;;;18.43;100.00;102052.34;5073087;28;20032;-46
2023/08/20 00:50:09;;;;;;;0.00;0.00;;;;;;;18.37;100.00;102058.63;5071997;28;20070;-43
2023/08/20 00:52:34;;;;;;;0.00;0.00;;;;;;;18.36;100.00;102067.84;5054898;28;20439;-48
2023/08/20 00:55:00;;;;;;;0.00;0.00;;;;;;;18.39;100.00;102067.44;5072054;28;20033;-46
2023/08/20 00:57:26;;;;;;;0.00;0.00;;;;;;;18.40;100.00;102064.53;5081464;28;20362;-47
2023/08/20 00:59:54;;;;;;;0.00;0.00;;;;;;;18.41;100.00;102060.75;5077697;28;20127;-48
2023/08/20 01:02:20;;;;;;;0.00;0.00;;;;;;;18.43;100.00;102066.84;5071735;28;20336;-45
2023/08/20 01:04:47;;;;;;;0.00;0.00;;;;;;;18.43;100.00;102076.88;5071683;28;20112;-44
2023/08/20 01:07:19;;;;;;;0.00;0.00;;;;;;;18.42;100.00;102076.03;5078297;28;20386;-44
2023/08/20 01:10:06;;;;;;;0.00;0.00;;;;;;;18.43;100.00;102072.28;5079490;28;20044;-42
2023/08/20 01:12:34;;;;;;;0.00;0.00;;;;;;;18.42;100.00;102069.75;5071866;28;20033;-44
2023/08/20 01:14:59;;;;;;;0.00;0.00;;;;;;;18.39;100.00;102059.25;5054617;28;20385;-44
2023/08/20 01:17:25;;;;;;;0.00;0.00;;;;;;;18.34;100.00;102067.22;5079157;28;20028;-47
2023/08/20 01:19:50;;;;;;;0.00;0.00;;;;;;;18.28;100.00;102071.59;5081528;28;20029;-47
2023/08/20 01:22:22;;;;;;;0.00;0.00;;;;;;;18.24;100.00;102069.47;5071872;28;20036;-48
2023/08/20 01:25:25;;;;;;;0.00;0.00;;;;;;;18.20;100.00;102069.88;5077144;28;20439;-46
2023/08/20 01:28:15;;;;;;;0.00;0.00;;;;;;;18.15;100.00;102064.19;5053009;28;20444;-45
2023/08/20 01:30:41;;;;;;;0.00;0.00;;;;;;;18.11;100.00;102086.59;5053396;28;20033;-48
2023/08/20 01:33:07;;;;;;;0.00;0.00;;;;;;;18.05;100.00;102074.63;5052104;28;20029;-45
2023/08/20 01:35:33;;;;;;;0.00;0.00;;;;;;;18.03;100.00;102071.25;5081422;28;20092;-45
2023/08/20 01:37:58;;;;;;;0.00;0.00;;;;;;;18.03;100.00;102068.53;5053135;28;20025;-49
2023/08/20 01:40:23;;;;;;;0.00;0.00;;;;;;;18.01;100.00;102075.22;5071752;28;20032;-44
2023/08/20 01:42:49;;;;;;;0.00;0.00;;;;;;;17.98;100.00;102082.75;5071520;28;20029;-45
2023/08/20 01:45:14;;;;;;;0.00;0.00;;;;;;;17.95;100.00;102080.41;5071541;28;20032;-44
2023/08/20 01:47:40;;;;;;;0.00;0.00;;;;;;;17.94;100.00;102076.03;5071174;28;20020;-45
2023/08/20 01:50:05;;;;;;;0.00;0.00;;;;;;;17.89;100.00;102067.63;5071168;28;20060;-46
2023/08/20 01:52:31;;;;;;;0.00;0.00;;;;;;;17.86;100.00;102069.91;5071126;28;20094;-45
2023/08/20 01:54:57;;;;;;;0.00;0.00;;;;;;;17.80;100.00;102066.09;5085025;28;20096;-47
2023/08/20 01:57:23;;;;;;;0.00;0.00;;;;;;;17.74;100.00;102064.97;5073877;28;20479;-46
2023/08/20 01:59:48;;;;;;;0.00;0.00;;;;;;;17.69;100.00;102056.59;5070940;28;20135;-47
2023/08/20 02:02:13;;;;;;;0.00;0.00;;;;;;;17.67;100.00;102068.72;5070885;28;20379;-45
2023/08/20 02:04:39;;;;;;;0.00;0.00;;;;;;;17.65;100.00;102068.91;5078118;28;20024;-47
2023/08/20 02:07:04;;;;;;;0.00;0.00;;;;;;;17.62;100.00;102076.63;5071181;28;20031;-46
2023/08/20 02:09:30;;;;;;;0.00;0.00;;;;;;;17.58;100.00;102083.50;5071348;28;20020;-46
2023/08/20 02:11:55;;;;;;;0.00;0.00;;;;;;;17.57;100.00;102084.56;5072032;28;20118;-44
2023/08/20 02:14:21;;;;;;;0.00;0.00;;;;;;;17.55;100.00;102092.91;5054191;28;20044;-46
2023/08/20 02:16:47;;;;;;;0.00;0.00;;;;;;;17.53;100.00;102094.97;5071989;28;20123;-47
2023/08/20 02:19:13;;;;;;;0.00;0.00;;;;;;;17.54;100.00;102091.22;5053714;28;20031;-46
2023/08/20 02:21:40;;;;;;;0.00;0.00;;;;;;;17.54;100.00;102088.50;5070621;28;20083;-46
2023/08/20 02:24:06;;;;;;;0.00;0.00;;;;;;;17.53;100.00;102089.53;5070976;28;20032;-47
2023/08/20 02:26:31;;;;;;;0.00;0.00;;;;;;;17.53;100.00;102094.97;5071291;28;20032;-47
2023/08/20 02:28:56;;;;;;;0.00;0.00;;;;;;;17.52;100.00;102090.59;5072547;28;20395;-46
2023/08/20 02:31:22;;;;;;;0.00;0.00;;;;;;;17.48;100.00;102097.44;5071541;28;20198;-47
2023/08/20 02:33:47;;;;;;;0.00;0.00;;;;;;;17.43;100.00;102092.63;5071477;28;20090;-44
2023/08/20 02:36:13;;;;;;;0.00;0.00;;;;;;;17.42;100.00;102092.81;5070806;28;20036;-44
2023/08/20 02:38:38;;;;;;;0.00;0.00;;;;;;;17.41;100.00;102100.13;5071103;28;20351;-46
2023/08/20 02:41:03;;;;;;;0.00;0.00;;;;;;;17.43;100.00;102105.34;5071097;28;20124;-48
2023/08/20 02:43:29;;;;;;;0.00;0.00;;;;;;;17.43;100.00;102113.53;5070379;28;20033;-45
2023/08/20 02:45:54;;;;;;;0.00;0.00;;;;;;;17.41;100.00;102113.75;5070810;28;20124;-49
2023/08/20 02:48:20;;;;;;;0.00;0.00;;;;;;;17.41;100.00;102129.22;5078795;28;20119;-46
2023/08/20 02:50:46;;;;;;;0.00;0.00;;;;;;;17.40;100.00;102125.63;5074915;28;20039;-46
2023/08/20 02:53:11;;;;;;;0.00;0.00;;;;;;;17.40;100.00;102138.41;5074941;28;20036;-46
2023/08/20 02:55:37;;;;;;;0.00;0.00;;;;;;;17.40;100.00;102127.53;5074459;28;20044;-44
2023/08/20 02:58:07;;;;;;;0.00;0.00;;;;;;;17.39;100.00;102139.47;5056476;28;20035;-43
2023/08/20 03:00:33;;;;;;;0.00;0.00;;;;;;;17.38;100.00;102135.91;5074895;28;20048;-46
2023/08/20 03:02:58;;;;;;;0.00;0.00;;;;;;;17.37;100.00;102133.38;5076333;28;20035;-44
2023/08/20 03:05:23;;;;;;;0.00;0.00;;;;;;;17.35;100.00;102136.28;5075802;28;20056;-46
2023/08/20 03:07:49;;;;;;;0.00;0.00;;;;;;;17.32;100.00;102132.09;5074393;28;20033;-43
2023/08/20 03:10:14;;;;;;;0.00;0.00;;;;;;;17.29;100.00;102129.72;5091222;28;20434;-45
2023/08/20 03:12:40;;;;;;;0.00;0.00;;;;;;;17.26;100.00;102132.84;5064888;28;20032;-44
2023/08/20 03:15:06;;;;;;;0.00;0.00;;;;;;;17.24;100.00;102140.34;5079150;28;20394;-45
2023/08/20 03:17:31;;;;;;;0.00;0.00;;;;;;;17.22;100.00;102136.16;5078823;28;20097;-42
2023/08/20 03:19:59;;;;;;;0.00;0.00;;;;;;;17.18;100.00;102132.16;5073802;28;20108;-44
2023/08/20 03:22:25;;;;;;;0.00;0.00;;;;;;;17.14;100.00;102128.97;5074425;28;20020;-45
2023/08/20 03:24:51;;;;;;;0.00;0.00;;;;;;;17.11;100.00;102129.34;5077575;28;20070;-45
2023/08/20 03:27:17;;;;;;;0.00;0.00;;;;;;;17.10;100.00;102133.94;5081223;28;20089;-45
2023/08/20 03:29:43;;;;;;;0.00;0.00;;;;;;;17.08;100.00;102135.19;5063920;28;20016;-46
2023/08/20 03:32:09;;;;;;;0.00;0.00;;;;;;;17.08;100.00;102137.91;5081556;28;20032;-47
2023/08/20 03:34:34;;;;;;;0.00;0.00;;;;;;;17.07;100.00;102138.94;5074962;28;20113;-46
2023/08/20 03:37:00;;;;;;;0.00;0.00;;;;;;;17.03;100.00;102140.34;5074943;28;20502;-45
2023/08/20 03:39:25;;;;;;;0.00;0.00;;;;;;;17.01;100.00;102137.84;5075310;28;20438;-46
2023/08/20 03:41:52;;;;;;;0.00;0.00;;;;;;;16.98;100.00;102142.81;5075102;28;20056;-46
2023/08/20 03:44:17;;;;;;;0.00;0.00;;;;;;;16.96;100.00;102137.59;5082777;28;20032;-46
2023/08/20 03:46:42;;;;;;;0.00;0.00;;;;;;;16.92;100.00;102130.00;5056536;28;20029;-47
2023/08/20 03:49:08;;;;;;;0.00;0.00;;;;;;;16.92;100.00;102140.88;5074646;28;20369;-44
2023/08/20 03:51:33;;;;;;;0.00;0.00;;;;;;;16.89;100.00;102137.50;5075022;28;20037;-43
2023/08/20 03:53:59;;;;;;;0.00;0.00;;;;;;;16.85;100.00;102138.94;5074622;28;20134;-47
2023/08/20 03:56:24;;;;;;;0.00;0.00;;;;;;;16.84;100.00;102145.38;5074347;28;20058;-46
2023/08/20 03:58:50;;;;;;;0.00;0.00;;;;;;;16.83;100.00;102141.00;5074597;28;20481;-45
2023/08/20 04:01:15;;;;;;;0.00;0.00;;;;;;;16.80;100.00;102146.81;5061841;28;20064;-49
2023/08/20 04:03:40;;;;;;;0.00;0.00;;;;;;;16.78;100.00;102151.59;5057160;28;20020;-46
2023/08/20 04:06:07;;;;;;;0.00;0.00;;;;;;;16.75;100.00;102146.50;5075005;28;20108;-46
2023/08/20 04:08:32;;;;;;;0.00;0.00;;;;;;;16.72;100.00;102155.06;5091224;28;20028;-44
2023/08/20 04:10:58;;;;;;;0.00;0.00;;;;;;;16.68;100.00;102156.47;5084773;28;20074;-44
2023/08/20 04:13:23;;;;;;;0.00;0.00;;;;;;;16.65;100.00;102160.41;5076844;28;20036;-45
2023/08/20 04:15:48;;;;;;;0.00;0.00;;;;;;;16.60;100.00;102164.72;5075677;28;20028;-47
2023/08/20 04:18:14;;;;;;;0.00;0.00;;;;;;;16.55;100.00;102167.16;5074439;28;20526;-45
2023/08/20 04:20:39;;;;;;;0.00;0.00;;;;;;;16.53;100.00;102169.22;5074459;28;20351;-47
2023/08/20 04:23:04;;;;;;;0.00;0.00;;;;;;;16.53;100.00;102166.50;5080597;28;20024;-45
2023/08/20 04:25:30;;;;;;;0.00;0.00;;;;;;;16.55;100.00;102172.59;5095628;28;20397;-45
2023/08/20 04:27:55;;;;;;;0.00;0.00;;;;;;;16.54;100.00;102174.47;5095290;28;20036;-47
2023/08/20 04:30:21;;;;;;;0.00;0.00;;;;;;;16.56;100.00;102177.84;5082093;28;20052;-47
2023/08/20 04:32:46;;;;;;;0.00;0.00;;;;;;;16.58;100.00;102177.66;5074815;28;20040;-45
2023/08/20 04:35:11;;;;;;;0.00;0.00;;;;;;;16.57;100.00;102182.25;5056252;28;20020;-47
2023/08/20 04:37:37;;;;;;;0.00;0.00;;;;;;;16.57;100.00;102175.97;5074426;28;20028;-45
2023/08/20 04:40:05;;;;;;;0.00;0.00;;;;;;;16.56;100.00;102175.13;5074522;28;20716;-47
2023/08/20 04:42:31;;;;;;;0.00;0.00;;;;;;;16.57;100.00;102175.97;5074113;28;20039;-47
2023/08/20 04:44:57;;;;;;;0.00;0.00;;;;;;;16.56;100.00;102180.56;5093922;28;20416;-45
2023/08/20 04:47:22;;;;;;;0.00;0.00;;;;;;;16.58;100.00;102183.09;5093619;28;20027;-44
2023/08/20 04:49:47;;;;;;;0.00;0.00;;;;;;;16.59;100.00;102179.34;5085082;28;20032;-45
2023/08/20 04:52:13;;;;;;;0.00;0.00;;;;;;;16.60;100.00;102181.88;5074977;28;20028;-46
2023/08/20 04:54:38;;;;;;;0.00;0.00;;;;;;;16.62;100.00;102189.84;5041074;28;20089;-46
2023/08/20 04:57:04;;;;;;;0.00;0.00;;;;;;;16.64;100.00;102193.19;5071321;28;20276;-47
2023/08/20 04:59:29;;;;;;;0.00;0.00;;;;;;;16.69;100.00;102190.75;5071233;28;20048;-47
2023/08/20 05:01:54;;;;;;;0.00;0.00;;;;;;;16.71;100.00;102193.28;5070283;28;20027;-47
2023/08/20 05:04:20;;;;;;;0.00;0.00;;;;;;;16.73;100.00;102191.22;5069945;28;20040;-47
2023/08/20 05:06:45;;;;;;;0.00;0.00;;;;;;;16.74;100.00;102193.75;5069349;28;20027;-46
2023/08/20 05:09:10;;;;;;;0.00;0.00;;;;;;;16.77;100.00;102190.72;5079511;28;20111;-45
2023/08/20 05:11:36;;;;;;;0.00;0.00;;;;;;;16.83;100.00;102192.66;5069976;28;20474;-48
2023/08/20 05:14:01;;;;;;;0.00;0.00;;;;;;;16.92;100.00;102195.25;5051921;28;20124;-47
2023/08/20 05:16:27;;;;;;;0.00;0.00;;;;;;;16.99;100.00;102197.03;5069864;28;20036;-47
2023/08/20 05:18:52;;;;;;;0.00;0.00;;;;;;;17.06;100.00;102191.66;5068126;28;20032;-46
2023/08/20 05:21:17;;;;;;;0.00;0.00;;;;;;;17.10;100.00;102193.78;5065029;28;20046;-45
2023/08/20 05:23:43;;;;;;;0.00;0.00;;;;;;;17.17;100.00;102185.72;5073322;28;20353;-48
2023/08/20 05:26:08;;;;;;;0.00;0.00;;;;;;;17.23;100.00;102193.09;5069800;28;20028;-45
2023/08/20 05:28:34;;;;;;;0.00;0.00;;;;;;;17.24;100.00;102194.78;5070378;28;20032;-45
2023/08/20 05:30:59;;;;;;;0.00;0.00;;;;;;;17.30;100.00;102196.75;5069547;28;20032;-48
2023/08/20 05:33:25;;;;;;;0.00;0.00;;;;;;;17.34;100.00;102199.91;5080565;28;20032;-46
2023/08/20 05:35:50;;;;;;;0.00;0.00;;;;;;;17.42;100.00;102199.78;5069341;28;20036;-46
2023/08/20 05:38:16;;;;;;;0.00;0.00;;;;;;;17.55;100.00;102202.63;5069523;28;20139;-47
2023/08/20 05:40:42;;;;;;;0.00;0.00;;;;;;;17.67;100.00;102197.50;5082656;28;20363;-46
2023/08/20 05:43:07;;;;;;;0.00;0.00;;;;;;;17.88;100.00;102195.84;5078829;28;20482;-44
2023/08/20 05:45:32;;;;;;;0.00;0.00;;;;;;;18.09;100.00;102195.78;5069730;28;20040;-46
2023/08/20 05:47:58;;;;;;;0.00;0.00;;;;;;;18.43;100.00;102185.91;5069266;28;20025;-46
2023/08/20 05:50:23;;;;;;;0.00;0.00;;;;;;;18.85;100.00;102184.03;5070867;28;20106;-47
2023/08/20 05:52:48;;;;;;;0.00;0.00;;;;;;;19.32;100.00;102167.78;5069780;28;20032;-46
2023/08/20 05:55:14;;;;;;;0.00;0.00;;;;;;;19.98;100.00;102153.31;5080212;28;20748;-46
2023/08/20 05:57:41;;;;;;;0.00;0.00;;;;;;;20.56;100.00;102136.97;5090046;28;20090;-45
2023/08/20 06:00:07;;;;;;;0.00;0.00;;;;;;;21.60;100.00;102124.75;5088029;28;20097;-45
2023/08/20 06:02:32;;;;;;;0.00;0.00;;;;;;;22.17;100.00;102121.03;5077889;28;20040;-46
2023/08/20 06:04:58;;;;;;;0.00;0.00;;;;;;;22.88;100.00;102114.88;5051580;28;20437;-47
2023/08/20 06:07:23;;;;;;;0.00;0.00;;;;;;;23.16;100.00;102107.94;5069374;28;20036;-47
2023/08/20 06:09:50;;;;;;;0.00;0.00;;;;;;;23.43;100.00;102117.44;5069710;28;20071;-48
2023/08/20 06:12:16;;;;;;;0.00;0.00;;;;;;;23.32;100.00;102114.66;5075428;28;20024;-45
2023/08/20 06:14:41;;;;;;;0.00;0.00;;;;;;;23.33;100.00;102111.69;5089714;28;20501;-48
2023/08/20 06:17:06;;;;;;;0.00;0.00;;;;;;;23.27;100.00;102115.34;5087485;28;20036;-47
2023/08/20 06:19:32;;;;;;;0.00;0.00;;;;;;;23.61;100.00;102124.72;5087740;28;20496;-47
2023/08/20 06:21:58;;;;;;;0.00;0.00;;;;;;;23.25;100.00;102119.41;5087562;28;20035;-48
2023/08/20 06:24:23;;;;;;;0.00;0.00;;;;;;;23.74;100.00;102118.19;5089245;28;20511;-48
2023/08/20 06:26:49;;;;;;;0.00;0.00;;;;;;;24.25;100.00;102119.34;5087885;28;20029;-44
2023/08/20 06:29:14;;;;;;;0.00;0.00;;;;;;;24.65;100.00;102117.69;5069432;28;20150;-47
2023/08/20 06:31:40;;;;;;;0.00;0.00;;;;;;;24.77;100.00;102121.22;5070345;28;20028;-46
2023/08/20 06:34:05;;;;;;;0.00;0.00;;;;;;;25.03;100.00;102122.53;5070319;28;20491;-44
2023/08/20 06:36:31;;;;;;;0.00;0.00;;;;;;;24.79;100.00;102124.56;5070345;28;20362;-46
2023/08/20 06:38:56;;;;;;;0.00;0.00;;;;;;;25.24;100.00;102125.69;5079690;28;20024;-46
2023/08/20 06:41:22;;;;;;;0.00;0.00;;;;;;;25.37;100.00;102130.84;5090681;28;20039;-46
2023/08/20 06:43:48;;;;;;;0.00;0.00;;;;;;;25.38;100.00;102129.75;5084597;28;20033;-44
2023/08/20 06:46:13;;;;;;;0.00;0.00;;;;;;;25.67;100.00;102133.25;5070428;28;20472;-46
2023/08/20 06:48:39;;;;;;;0.00;0.00;;;;;;;25.99;100.00;102136.28;5055980;28;20139;-48
2023/08/20 06:51:12;;;;;;;0.00;0.00;;;;;;;26.58;100.00;102134.84;5079180;28;20496;-47
2023/08/20 06:53:37;;;;;;;0.00;0.00;;;;;;;26.58;100.00;102143.13;5079051;28;20028;-46
2023/08/20 06:56:03;;;;;;;0.00;0.00;;;;;;;26.06;100.00;102131.38;5071064;28;20024;-47
2023/08/20 06:58:28;;;;;;;0.00;0.00;;;;;;;25.83;100.00;102140.69;5068535;28;20526;-47
2023/08/20 07:00:54;;;;;;;0.00;0.00;;;;;;;26.30;100.00;102133.91;5071638;28;20048;-47
2023/08/20 07:03:19;;;;;;;0.00;0.00;;;;;;;26.65;100.00;102141.00;5073844;28;20024;-47
2023/08/20 07:05:44;;;;;;;0.00;0.00;;;;;;;26.39;100.00;102143.41;5063284;28;20039;-47
2023/08/20 07:08:10;;;;;;;0.00;0.00;;;;;;;27.00;100.00;102153.53;5056457;28;20033;-48
2023/08/20 07:10:35;;;;;;;0.00;0.00;;;;;;;27.40;100.00;102157.81;5073336;28;20029;-47
2023/08/20 07:13:01;;;;;;;0.00;0.00;;;;;;;26.94;100.00;102149.88;5084503;28;20035;-47
2023/08/20 07:15:26;;;;;;;0.00;0.00;;;;;;;26.56;100.00;102146.13;5077768;28;20393;-46
2023/08/20 07:17:51;;;;;;;0.00;0.00;;;;;;;27.21;100.00;102155.44;5083037;28;20139;-47
2023/08/20 07:20:17;;;;;;;0.00;0.00;;;;;;;27.56;100.00;102152.13;5051143;28;20147;-47
2023/08/20 07:22:42;;;;;;;0.00;0.00;;;;;;;27.27;100.00;102164.59;5061410;28;20027;-47
2023/08/20 07:25:08;;;;;;;0.00;0.00;;;;;;;26.95;100.00;102161.75;5049623;28;20036;-45
2023/08/20 07:27:33;;;;;;;0.00;0.00;;;;;;;26.50;100.00;102160.94;5072705;28;20032;-45
2023/08/20 07:29:59;;;;;;;0.00;0.00;;;;;;;27.12;100.00;102163.34;5079861;28;20352;-50
2023/08/20 07:32:24;;;;;;;0.00;0.00;;;;;;;26.97;100.00;102165.94;5090408;28;20067;-45
2023/08/20 07:34:50;;;;;;;0.00;0.00;;;;;;;27.48;100.00;102171.13;5093175;28;20039;-46
2023/08/20 07:37:15;;;;;;;0.00;0.00;;;;;;;28.23;100.00;102161.72;5075713;28;20072;-46
2023/08/20 07:39:41;;;;;;;0.00;0.00;;;;;;;27.64;100.00;102181.22;5076321;28;20055;-47
2023/08/20 07:42:06;;;;;;;0.00;0.00;;;;;;;26.97;100.00;102176.16;5073782;28;20493;-47
2023/08/20 07:44:31;;;;;;;0.00;0.00;;;;;;;27.18;100.00;102182.75;5072897;28;20029;-45
2023/08/20 07:46:57;;;;;;;0.00;0.00;;;;;;;27.24;100.00;102182.53;5078809;28;20042;-47
2023/08/20 07:49:22;;;;;;;0.00;0.00;;;;;;;26.82;100.00;102177.66;5071800;28;20044;-46
2023/08/20 07:51:48;;;;;;;0.00;0.00;;;;;;;27.69;100.00;102178.50;5072462;28;20103;-44
2023/08/20 07:54:14;;;;;;;0.00;0.00;;;;;;;28.21;100.00;102180.53;5071424;28;20041;-44
2023/08/20 07:56:39;;;;;;;0.00;0.00;;;;;;;28.16;100.00;102188.81;5072530;28;20433;-46
2023/08/20 07:59:05;;;;;;;0.00;0.00;;;;;;;27.45;100.00;102189.09;5071717;28;20440;-46
2023/08/20 08:01:30;;;;;;;0.00;0.00;;;;;;;27.70;100.00;102185.72;5071949;28;20057;-46
2023/08/20 08:03:55;;;;;;;0.00;0.00;;;;;;;27.75;100.00;102198.72;5073281;28;20078;-44
2023/08/20 08:06:23;;;;;;;0.00;0.00;;;;;;;27.18;100.00;102193.81;5089527;28;20032;-46
2023/08/20 08:08:49;;;;;;;0.00;0.00;;;;;;;27.31;100.00;102194.22;5080876;28;20036;-45
2023/08/20 08:11:14;;;;;;;0.00;0.00;;;;;;;27.57;100.00;102197.22;5072561;28;20036;-46
2023/08/20 08:13:39;;;;;;;0.00;0.00;;;;;;;27.48;100.00;102199.63;5075115;28;20432;-47
2023/08/20 08:16:05;;;;;;;0.00;0.00;;;;;;;27.30;100.00;102206.34;5069120;28;20507;-46
2023/08/20 08:18:30;;;;;;;0.00;0.00;;;;;;;27.22;100.00;102193.00;5071040;28;20020;-46
2023/08/20 08:20:55;;;;;;;0.00;0.00;;;;;;;27.14;100.00;102198.97;5072136;28;20032;-47
2023/08/20 08:23:21;;;;;;;0.00;0.00;;;;;;;27.58;100.00;102188.66;5071319;28;20383;-46
2023/08/20 08:25:46;;;;;;;0.00;0.00;;;;;;;28.03;100.00;102194.81;5071078;28;20163;-46
2023/08/20 08:28:12;;;;;;;0.00;0.00;;;;;;;28.14;97.10;102184.63;5076157;28;20471;-47
2023/08/20 08:30:38;;;;;;;0.00;0.00;;;;;;;28.43;98.46;102194.22;5074957;28;20025;-50
2023/08/20 08:33:03;;;;;;;0.00;0.00;;;;;;;28.47;95.96;102191.78;5073585;28;20058;-46
2023/08/20 08:35:29;;;;;;;0.00;0.00;;;;;;;29.04;94.96;102193.66;5091838;28;20442;-46
2023/08/20 08:37:54;;;;;;;0.00;0.00;;;;;;;29.85;91.79;102199.53;5080377;28;20040;-46
2023/08/20 08:40:20;;;;;;;0.00;0.00;;;;;;;29.75;89.42;102206.78;5092797;28;20032;-44
2023/08/20 08:42:52;;;;;;;0.00;0.00;;;;;;;29.76;89.41;102207.59;5091005;28;20171;-44
2023/08/20 08:45:21;;;;;;;0.00;0.00;;;;;;;30.31;86.76;102205.88;5080962;28;20034;-44
2023/08/20 08:47:47;;;;;;;0.00;0.00;;;;;;;30.60;84.29;102206.03;5070312;28;20036;-45
2023/08/20 08:50:13;;;;;;;0.00;0.00;;;;;;;30.51;81.28;102212.47;5070607;28;20415;-45
2023/08/20 08:52:39;;;;;;;0.00;0.00;;;;;;;30.70;82.03;102213.50;5070572;28;20024;-46
2023/08/20 08:55:08;;;;;;;0.00;0.00;;;;;;;29.27;85.69;102213.66;5070233;28;20037;-46
2023/08/20 08:57:34;;;;;;;0.00;0.00;;;;;;;28.87;87.97;102212.44;5069212;28;20498;-46
2023/08/20 09:00:00;;;;;;;0.00;0.00;;;;;;;29.24;88.49;102203.13;5069310;28;20189;-45
2023/08/20 09:02:25;;;;;;;0.00;0.00;;;;;;;28.84;85.47;102215.75;5050962;28;20517;-46
2023/08/20 09:04:52;;;;;;;0.00;0.00;;;;;;;28.46;86.92;102215.00;5068735;28;20101;-46
2023/08/20 09:07:17;;;;;;;0.00;0.00;;;;;;;28.86;87.67;102211.59;5069614;28;20032;-47
2023/08/20 09:09:44;;;;;;;0.00;0.00;;;;;;;29.31;87.61;102214.78;5068378;28;20106;-47
2023/08/20 09:12:18;;;;;;;0.00;0.00;;;;;;;29.54;82.15;102217.03;5067855;28;20429;-48
2023/08/20 09:14:47;;;;;;;0.00;0.00;;;;;;;29.30;84.01;102208.38;5080847;28;20036;-45
2023/08/20 09:17:12;;;;;;;0.00;0.00;;;;;;;29.90;85.31;102211.47;5049073;28;20484;-46
2023/08/20 09:19:38;;;;;;;0.00;0.00;;;;;;;30.99;81.05;102210.88;5067882;28;20024;-47
2023/08/20 09:22:03;;;;;;;0.00;0.00;;;;;;;30.59;78.09;102217.41;5069115;28;20029;-46
2023/08/20 09:24:34;;;;;;;0.00;0.00;;;;;;;31.26;79.81;102210.41;5071149;28;20036;-46
2023/08/20 09:27:03;;;;;;;0.00;0.00;;;;;;;32.23;76.79;102207.91;5069596;28;20028;-46
2023/08/20 09:29:31;;;;;;;0.00;0.00;;;;;;;32.50;73.52;102216.53;5069899;28;20123;-46
2023/08/20 09:32:02;;;;;;;0.00;0.00;;;;;;;32.54;74.51;102209.22;5068240;28;20101;-46
2023/08/20 09:34:38;;;;;;;0.00;0.00;;;;;;;32.68;73.04;102211.31;5056739;28;20076;-46
2023/08/20 09:37:04;;;;;;;0.00;0.00;;;;;;;32.48;72.77;102224.38;5075389;28;20057;-46
2023/08/20 09:39:29;;;;;;;0.00;0.00;;;;;;;32.37;71.42;102228.38;5069494;28;20321;-45
2023/08/20 09:41:55;;;;;;;0.00;0.00;;;;;;;31.84;73.49;102225.56;5067161;28;20119;-47
2023/08/20 09:44:21;;;;;;;0.00;0.00;;;;;;;32.41;73.03;102226.63;5050802;28;20270;-47
2023/08/20 09:46:47;;;;;;;0.00;0.00;;;;;;;32.14;72.42;102225.28;5067910;28;20020;-44
2023/08/20 09:49:15;;;;;;;0.00;0.00;;;;;;;31.79;71.15;102226.44;5050055;28;20069;-46
2023/08/20 09:51:42;;;;;;;0.00;0.00;;;;;;;30.62;72.61;102228.81;5049636;28;20032;-49
2023/08/20 09:54:16;;;;;;;0.00;0.00;;;;;;;31.09;76.22;102223.03;5050109;28;20053;-47
2023/08/20 09:56:43;;;;;;;0.00;0.00;;;;;;;31.70;76.44;102228.16;5067308;28;20036;-44
2023/08/20 09:59:10;;;;;;;0.00;0.00;;;;;;;32.33;73.20;102228.16;5068667;28;20436;-47
2023/08/20 10:01:36;;;;;;;0.00;0.00;;;;;;;32.89;71.34;102218.28;5072280;28;20540;-47
2023/08/20 10:04:02;;;;;;;0.00;0.00;;;;;;;32.72;69.65;102232.69;5068811;28;20124;-48
2023/08/20 10:06:28;;;;;;;0.00;0.00;;;;;;;32.65;67.46;102225.81;5052645;28;20339;-47
2023/08/20 10:08:54;;;;;;;0.00;0.00;;;;;;;32.74;68.29;102226.84;5052254;28;20032;-46
2023/08/20 10:11:19;;;;;;;0.00;0.00;;;;;;;32.65;70.36;102231.41;5050458;28;20051;-46
2023/08/20 10:13:44;;;;;;;0.00;0.00;;;;;;;32.93;69.08;102222.09;5068884;28;20029;-46
2023/08/20 10:16:13;;;;;;;0.00;0.00;;;;;;;32.63;70.11;102231.72;5068547;28;20020;-47
2023/08/20 10:18:39;;;;;;;0.00;0.00;;;;;;;32.50;68.21;102222.13;5066403;28;20042;-46
2023/08/20 10:21:05;;;;;;;0.00;0.00;;;;;;;32.51;68.15;102220.97;5067867;28;20112;-45
2023/08/20 10:23:31;;;;;;;0.00;0.00;;;;;;;31.79;67.17;102228.41;5067213;28;20024;-47
2023/08/20 10:26:08;;;;;;;0.00;0.00;;;;;;;30.85;69.62;102220.94;5067936;28;20027;-46
2023/08/20 10:28:34;;;;;;;0.00;0.00;;;;;;;30.49;72.90;102209.13;5068429;28;20045;-46
2023/08/20 10:31:17;;;;;;;0.00;0.00;;;;;;;30.82;74.43;102211.22;5068839;28;20087;-47
2023/08/20 10:33:46;;;;;;;0.00;0.00;;;;;;;31.33;74.49;102220.38;5072000;28;20012;-46
2023/08/20 10:36:22;;;;;;;0.00;0.00;;;;;;;31.43;69.72;102217.56;5068468;28;20116;-47
2023/08/20 10:38:49;;;;;;;0.00;0.00;;;;;;;31.60;72.87;102214.38;5068527;28;20024;-48
2023/08/20 10:41:16;;;;;;;0.00;0.00;;;;;;;32.04;70.75;102224.53;5068056;28;20051;-46
2023/08/20 10:43:49;;;;;;;0.00;0.00;;;;;;;32.00;71.76;102218.75;5067981;28;20071;-46
2023/08/20 10:46:18;;;;;;;0.00;0.00;;;;;;;32.13;71.38;102218.06;5068176;28;20043;-45
2023/08/20 10:48:54;;;;;;;0.00;0.00;;;;;;;31.93;73.60;102212.69;5068986;28;20572;-48
2023/08/20 10:51:25;;;;;;;0.00;0.00;;;;;;;31.66;73.99;102211.22;5053958;28;20044;-48
2023/08/20 10:54:00;;;;;;;0.00;0.00;;;;;;;31.51;76.10;102214.16;5051362;28;20028;-46
2023/08/20 10:56:43;;;;;;;0.00;0.00;;;;;;;31.20;74.97;102214.38;5088490;28;20031;-47
2023/08/20 10:59:26;;;;;;;0.00;0.00;;;;;;;30.76;78.11;102211.53;5088039;28;20031;-44
2023/08/20 11:01:54;;;;;;;0.00;0.00;;;;;;;31.57;75.77;102207.44;5089048;28;20071;-45
2023/08/20 11:04:28;;;;;;;0.00;0.00;;;;;;;31.77;73.81;102208.38;5075909;28;20479;-47
2023/08/20 11:06:55;;;;;;;0.00;0.00;;;;;;;31.79;74.69;102220.03;5068207;28;20037;-46
2023/08/20 11:09:26;;;;;;;0.00;0.00;;;;;;;31.89;73.62;102211.59;5069886;28;20081;-45
2023/08/20 11:11:52;;;;;;;0.00;0.00;;;;;;;32.09;71.43;102208.59;5071447;28;20078;-47
2023/08/20 11:14:19;;;;;;;0.00;0.00;;;;;;;32.02;72.78;102205.38;5071770;28;20036;-46
2023/08/20 11:16:45;;;;;;;0.00;0.00;;;;;;;32.00;72.71;102204.81;5066873;28;20394;-47